Time;durP1;ratioP1;P1;durP2;ratioP2;P2;SDS_P1;SDS_P2;PMS_P1;PMS_P2;Temp;Humidity;BMP_temperature;BMP_pressure;BME280_temperature;BME280_humidity;BME280_pressure;Samples;Min_cycle;Max_cycle;Signal;HPM_P1;HPM_P2
2022/12/31 00:01:56;;;;;;;55.70;30.50;;;7.90;99.90;;;7.99;64.99;95967.38;4978078;28;20486;-57
2022/12/31 00:04:23;;;;;;;57.17;31.30;;;8.00;99.90;;;8.04;65.49;95958.31;4979447;28;20517;-56
2022/12/31 00:06:51;;;;;;;144.70;60.57;;;8.00;99.90;;;8.08;64.82;95958.94;4980864;28;20527;-58
2022/12/31 00:09:19;;;;;;;86.20;39.10;;;8.10;99.90;;;8.13;65.72;95962.09;4980486;28;20455;-56
2022/12/31 00:11:46;;;;;;;104.83;48.00;;;8.10;99.90;;;8.17;65.43;95954.91;4978021;28;20508;-56
2022/12/31 00:14:14;;;;;;;56.00;31.03;;;8.10;99.90;;;8.21;65.27;95953.75;4981972;28;20459;-58
2022/12/31 00:16:41;;;;;;;48.87;26.20;;;8.20;99.90;;;8.24;65.14;95959.66;4978332;28;20494;-58
2022/12/31 00:19:10;;;;;;;53.17;27.50;;;8.20;99.90;;;8.27;64.61;95963.84;4978323;28;20526;-56
2022/12/31 00:21:37;;;;;;;49.70;27.13;;;8.30;99.90;;;8.32;64.78;95966.16;4983449;28;20471;-57
2022/12/31 00:24:06;;;;;;;53.20;27.70;;;8.30;99.90;;;8.36;64.99;95967.66;4984043;28;20531;-57
2022/12/31 00:26:34;;;;;;;55.93;27.17;;;8.30;99.90;;;8.39;65.03;95977.94;4976509;28;20958;-55
2022/12/31 00:29:02;;;;;;;55.13;28.40;;;8.40;99.90;;;8.41;64.59;95973.44;4979309;28;20652;-56
2022/12/31 00:31:30;;;;;;;49.70;28.07;;;8.40;99.90;;;8.41;64.35;95982.16;4977857;28;20470;-57
2022/12/31 00:33:58;;;;;;;49.17;27.40;;;8.40;99.90;;;8.42;65.24;95983.00;4979331;28;20573;-56
2022/12/31 00:36:27;;;;;;;52.70;28.50;;;8.40;99.90;;;8.42;65.10;95988.22;4978878;28;20494;-53
2022/12/31 00:38:55;;;;;;;54.27;30.37;;;8.40;99.90;;;8.41;64.95;95987.41;4979150;28;21399;-55
2022/12/31 00:41:22;;;;;;;58.47;30.70;;;8.40;99.90;;;8.40;65.53;95998.81;4977988;28;20458;-57
2022/12/31 00:43:51;;;;;;;59.67;32.47;;;8.40;99.90;;;8.40;65.02;95985.72;4983341;28;20498;-57
2022/12/31 00:46:19;;;;;;;80.03;39.50;;;8.40;99.90;;;8.37;65.30;95996.41;4979111;28;20454;-57
2022/12/31 00:48:46;;;;;;;101.93;47.30;;;8.40;99.90;;;8.33;64.27;95999.31;4976075;28;20486;-58
2022/12/31 00:51:15;;;;;;;115.33;53.27;;;8.30;99.90;;;8.21;64.09;96001.78;4977378;28;20455;-55
2022/12/31 00:53:42;;;;;;;115.23;54.27;;;8.30;99.90;;;8.13;64.56;96003.19;4974249;28;20570;-56
2022/12/31 00:56:11;;;;;;;117.00;53.43;;;8.20;99.90;;;8.06;64.60;96008.81;4978951;28;20529;-55
2022/12/31 00:58:39;;;;;;;124.50;58.70;;;8.10;99.90;;;8.03;65.20;96013.41;4978441;28;20487;-58
2022/12/31 01:01:11;;;;;;;113.67;53.87;;;8.00;99.90;;;8.00;65.16;96005.75;4984228;28;20537;-54
2022/12/31 01:03:38;;;;;;;123.97;57.70;;;8.00;99.90;;;7.98;65.04;96011.09;4978489;28;20615;-58
2022/12/31 01:06:06;;;;;;;122.40;56.07;;;8.00;99.90;;;7.99;65.36;96006.69;4977077;28;20451;-56
2022/12/31 01:08:34;;;;;;;121.10;59.47;;;8.00;99.90;;;7.99;65.56;96017.16;4978814;28;20598;-57
2022/12/31 01:11:20;;;;;;;129.30;56.77;;;8.00;99.90;;;7.98;65.41;96012.84;4978041;28;20467;-56
2022/12/31 01:13:49;;;;;;;121.07;55.50;;;8.00;99.90;;;7.97;65.54;96019.88;4981412;28;20864;-56
2022/12/31 01:16:18;;;;;;;124.13;56.07;;;8.00;99.90;;;7.97;65.32;96019.03;4973863;28;20546;-55
2022/12/31 01:18:45;;;;;;;133.60;58.83;;;8.00;99.90;;;7.94;64.62;96014.81;4980720;28;21073;-55
2022/12/31 01:21:13;;;;;;;118.33;53.97;;;8.00;99.90;;;7.93;64.68;96014.91;4977085;28;21368;-57
2022/12/31 01:23:40;;;;;;;96.03;50.07;;;8.00;99.90;;;7.92;65.38;96018.47;4980309;28;20533;-58
2022/12/31 01:26:09;;;;;;;103.10;49.17;;;7.90;99.90;;;7.89;64.94;96011.66;4981248;28;20474;-54
2022/12/31 01:28:36;;;;;;;92.37;45.83;;;7.90;99.90;;;7.87;65.11;96018.78;4980693;28;20486;-56
2022/12/31 01:31:05;;;;;;;101.60;50.53;;;7.90;99.90;;;7.81;65.04;96009.50;4977601;28;20466;-56
2022/12/31 01:33:34;;;;;;;93.73;46.53;;;7.90;99.90;;;7.75;64.20;96020.38;4979447;28;20926;-57
2022/12/31 01:36:05;;;;;;;95.13;47.37;;;7.80;99.90;;;7.68;65.15;96019.91;4976174;28;20505;-58
2022/12/31 01:38:33;;;;;;;84.17;44.50;;;7.80;99.90;;;7.62;65.15;96024.66;4977278;28;21067;-56
2022/12/31 01:41:01;;;;;;;89.77;44.83;;;7.70;99.90;;;7.58;64.96;96018.78;4976213;28;20455;-57
2022/12/31 01:43:47;;;;;;;90.30;46.00;;;7.60;99.90;;;7.52;64.93;96027.81;4982456;28;20940;-55
2022/12/31 01:46:20;;;;;;;113.83;49.33;;;7.60;99.90;;;7.47;65.00;96024.66;4972427;28;20447;-56
2022/12/31 01:48:51;;;;;;;298.90;122.70;;;7.50;99.90;;;7.45;65.23;96034.38;4977778;28;20486;-57
2022/12/31 01:51:18;;;;;;;153.70;69.00;;;7.50;99.90;;;7.43;65.27;96031.00;4983225;28;20506;-56
2022/12/31 01:53:45;;;;;;;118.77;55.10;;;7.50;99.90;;;7.42;65.73;96029.34;4978813;28;20486;-56
2022/12/31 01:56:13;;;;;;;95.97;46.00;;;7.50;99.90;;;7.40;65.79;96031.19;4977081;28;20463;-53
2022/12/31 01:58:43;;;;;;;102.53;47.93;;;7.50;99.90;;;7.38;65.59;96037.47;4977614;28;20503;-54
2022/12/31 02:01:11;;;;;;;91.10;45.60;;;7.40;99.90;;;7.35;65.83;96043.72;4976923;28;22317;-57
2022/12/31 02:03:38;;;;;;;105.13;49.73;;;7.40;99.90;;;7.35;66.36;96038.47;4980769;28;20657;-54
2022/12/31 02:06:10;;;;;;;99.57;48.40;;;7.40;99.90;;;7.36;66.19;96042.78;4972675;28;20455;-58
2022/12/31 02:08:37;;;;;;;84.77;44.47;;;7.40;99.90;;;7.36;66.94;96042.78;4971173;28;20487;-57
2022/12/31 02:11:23;;;;;;;94.87;45.73;;;7.40;99.90;;;7.36;66.77;96048.03;4975145;28;20521;-54
2022/12/31 02:13:50;;;;;;;88.47;46.97;;;7.40;99.90;;;7.35;66.10;96038.47;4977072;28;20482;-58
2022/12/31 02:16:20;;;;;;;91.83;46.43;;;7.40;99.90;;;7.36;66.01;96037.56;4975292;28;20494;-55
2022/12/31 02:18:55;;;;;;;81.27;40.97;;;7.40;99.90;;;7.36;66.22;96048.84;4977185;28;20498;-57
2022/12/31 02:21:48;;;;;;;78.17;37.67;;;7.40;99.90;;;7.32;66.67;96043.88;4971900;28;20468;-55
2022/12/31 02:24:57;;;;;;;83.47;39.20;;;7.40;99.90;;;7.30;65.67;96045.75;4980028;28;20834;-56
2022/12/31 02:27:37;;;;;;;74.07;39.97;;;7.30;99.90;;;7.30;65.90;96045.75;4976469;28;20482;-57
2022/12/31 02:30:10;;;;;;;87.30;41.30;;;7.30;99.90;;;7.30;66.23;96045.75;4975517;28;20442;-57
2022/12/31 02:32:49;;;;;;;82.43;43.00;;;7.30;99.90;;;7.33;66.53;96050.81;4977567;28;20557;-55
2022/12/31 02:35:21;;;;;;;89.83;44.70;;;7.40;99.90;;;7.35;66.93;96054.19;4979195;28;20451;-58
2022/12/31 02:37:52;;;;;;;77.83;40.80;;;7.40;99.90;;;7.39;66.06;96054.81;4979635;28;20514;-57
2022/12/31 02:40:20;;;;;;;81.93;44.50;;;7.40;99.90;;;7.42;66.56;96065.13;4980549;28;20885;-58
2022/12/31 02:42:47;;;;;;;78.40;41.60;;;7.50;99.90;;;7.41;66.60;96061.66;4981763;28;20518;-57
2022/12/31 02:45:18;;;;;;;85.87;42.17;;;7.50;99.90;;;7.39;67.03;96060.94;4982317;28;20462;-59
2022/12/31 02:47:53;;;;;;;90.33;43.90;;;7.50;99.90;;;7.37;66.14;96065.38;4979480;28;20859;-54
2022/12/31 02:50:40;;;;;;;102.60;46.40;;;7.40;99.90;;;7.34;67.15;96063.81;4982535;28;20528;-56
2022/12/31 02:53:20;;;;;;;91.30;43.40;;;7.40;99.90;;;7.33;66.18;96058.66;4983166;28;20573;-57
2022/12/31 02:55:52;;;;;;;81.60;43.60;;;7.40;99.90;;;7.30;66.11;96061.47;4974886;28;20463;-54
2022/12/31 03:02:12;;;;;;;85.20;42.03;;;7.40;99.90;;;7.31;66.74;96069.22;4979735;28;20498;-56
2022/12/31 03:04:30;;;;;;;93.70;42.33;;;7.30;99.90;;;7.24;66.36;96051.38;4980874;28;21049;-57
2022/12/31 03:06:51;;;;;;;88.27;40.80;;;7.30;99.90;;;7.20;66.08;96053.28;4981469;28;20469;-55
2022/12/31 03:09:18;;;;;;;89.63;41.60;;;7.30;99.90;;;7.17;66.39;96056.94;4974871;28;20987;-56
2022/12/31 03:14:26;;;;;;;83.67;41.70;;;7.20;99.90;;;7.16;66.01;96051.81;4961182;28;20467;-57
2022/12/31 03:16:55;;;;;;;74.40;39.60;;;7.20;99.90;;;7.13;66.05;96047.59;4978950;28;20463;-57
2022/12/31 03:27:36;;;;;;;81.47;42.43;;;7.10;99.90;;;7.01;66.78;96056.16;4982163;28;20512;-58
2022/12/31 03:30:05;;;;;;;81.27;40.47;;;7.10;99.90;;;6.97;65.98;96047.66;4978856;28;20636;-54
2022/12/31 03:32:33;;;;;;;87.33;40.50;;;7.10;99.90;;;6.95;66.52;96061.72;4982416;28;20889;-53
2022/12/31 03:35:00;;;;;;;89.33;40.90;;;7.00;99.90;;;6.93;66.81;96055.75;4976234;28;20522;-57
2022/12/31 03:37:28;;;;;;;76.77;42.60;;;7.00;99.90;;;6.90;66.79;96054.16;4979986;28;20509;-58
2022/12/31 03:39:55;;;;;;;85.33;43.40;;;6.90;99.90;;;6.88;66.15;96060.38;4979799;28;20894;-58
2022/12/31 03:42:23;;;;;;;82.17;44.03;;;6.90;99.90;;;6.83;66.85;96068.50;4980607;28;20869;-56
2022/12/31 03:44:50;;;;;;;82.60;38.80;;;6.90;99.90;;;6.80;66.64;96059.06;4980171;28;20451;-57
2022/12/31 03:47:17;;;;;;;74.10;40.13;;;6.90;99.90;;;6.79;66.66;96060.00;4980630;28;20638;-55
2022/12/31 03:49:46;;;;;;;82.80;43.70;;;6.80;99.90;;;6.76;66.56;96057.56;4978148;28;20468;-55
2022/12/31 03:52:13;;;;;;;79.60;40.83;;;6.80;99.90;;;6.75;66.72;96055.03;4981982;28;20569;-56
2022/12/31 03:54:40;;;;;;;84.83;44.87;;;6.80;99.90;;;6.71;66.29;96064.81;4982210;28;20475;-57
2022/12/31 03:57:07;;;;;;;101.77;47.33;;;6.80;99.90;;;6.66;66.18;96064.22;4979788;28;20475;-57
2022/12/31 03:59:35;;;;;;;99.73;50.37;;;6.80;99.90;;;6.60;66.96;96064.56;4977932;28;20839;-56
2022/12/31 04:02:02;;;;;;;95.30;44.97;;;6.70;99.90;;;6.58;66.66;96069.03;4981815;28;20479;-57
2022/12/31 04:04:29;;;;;;;255.23;97.33;;;6.70;99.90;;;6.54;66.17;96065.75;4975730;28;20463;-59
2022/12/31 04:06:58;;;;;;;165.07;69.37;;;6.60;99.90;;;6.52;66.66;96067.63;4979804;28;20491;-57
2022/12/31 04:09:25;;;;;;;107.60;50.80;;;6.60;99.90;;;6.47;66.56;96067.03;4977310;28;20467;-58
2022/12/31 04:11:52;;;;;;;131.27;57.13;;;6.60;99.90;;;6.43;66.87;96074.19;4983081;28;20455;-56
2022/12/31 04:14:19;;;;;;;118.63;52.27;;;6.60;99.90;;;6.41;66.28;96078.69;4978827;28;20459;-56
2022/12/31 04:16:47;;;;;;;92.40;45.60;;;6.50;99.90;;;6.38;66.33;96077.97;4976949;28;20537;-56
2022/12/31 04:19:14;;;;;;;87.70;44.57;;;6.50;99.90;;;6.36;66.90;96088.53;4977065;28;20557;-56
2022/12/31 04:21:41;;;;;;;93.30;46.00;;;6.50;99.90;;;6.33;66.43;96083.47;4978040;28;20460;-54
2022/12/31 04:24:10;;;;;;;83.97;44.00;;;6.40;99.90;;;6.30;66.96;96075.78;4983057;28;20465;-56
2022/12/31 04:26:37;;;;;;;96.43;46.37;;;6.40;99.90;;;6.28;66.79;96081.09;4979156;28;20470;-55
2022/12/31 04:29:04;;;;;;;72.50;40.50;;;6.40;99.90;;;6.27;66.92;96083.78;4978211;28;20458;-55
2022/12/31 04:31:32;;;;;;;75.37;37.27;;;6.40;99.90;;;6.25;66.82;96089.09;4976900;28;20458;-54
2022/12/31 04:33:59;;;;;;;80.30;39.00;;;6.40;99.90;;;6.24;67.11;96089.19;4980510;28;20560;-56
2022/12/31 04:36:26;;;;;;;72.17;37.50;;;6.30;99.90;;;6.23;66.66;96092.75;4982232;28;20463;-57
2022/12/31 04:38:53;;;;;;;74.60;38.60;;;6.30;99.90;;;6.21;66.75;96087.59;4977156;28;20510;-58
2022/12/31 04:41:25;;;;;;;83.43;39.80;;;6.30;99.90;;;6.22;66.89;96088.44;4976524;28;21002;-56
2022/12/31 04:43:54;;;;;;;90.30;42.67;;;6.30;99.90;;;6.20;66.90;96096.34;4980936;28;20584;-58
2022/12/31 04:46:23;;;;;;;83.83;39.70;;;6.30;99.90;;;6.20;66.48;96093.75;4979320;28;20463;-56
2022/12/31 04:48:50;;;;;;;101.93;43.27;;;6.30;99.90;;;6.18;66.88;96092.13;4976956;28;20478;-57
2022/12/31 04:51:18;;;;;;;79.73;41.30;;;6.30;99.90;;;6.17;66.71;96095.69;4978844;28;20476;-55
2022/12/31 04:53:45;;;;;;;83.33;42.37;;;6.30;99.90;;;6.13;67.14;96105.44;4981222;28;20490;-57
2022/12/31 04:56:12;;;;;;;73.53;37.57;;;6.30;99.90;;;6.10;66.80;96110.81;4978510;28;20948;-55
2022/12/31 04:58:41;;;;;;;65.40;33.67;;;6.20;99.90;;;6.02;67.20;96113.84;4976464;28;20568;-56
2022/12/31 05:01:08;;;;;;;76.17;32.90;;;6.10;99.90;;;6.00;66.96;96109.66;4978926;28;20454;-57
2022/12/31 05:03:36;;;;;;;80.50;39.97;;;6.10;99.90;;;5.98;67.47;96104.50;4977978;28;20529;-57
2022/12/31 05:06:04;;;;;;;82.87;42.07;;;6.10;99.90;;;5.99;67.21;96111.38;4983406;28;20512;-55
2022/12/31 05:08:31;;;;;;;88.63;42.73;;;6.10;99.90;;;5.99;67.52;96113.16;4980038;28;20470;-56
2022/12/31 05:10:59;;;;;;;85.17;44.63;;;6.10;99.90;;;6.01;67.05;96121.75;4977873;28;20462;-55
2022/12/31 05:13:27;;;;;;;83.80;43.27;;;6.10;99.90;;;5.99;67.25;96124.44;4978309;28;20482;-55
2022/12/31 05:15:56;;;;;;;89.73;43.23;;;6.10;99.90;;;5.99;66.61;96128.84;4977564;28;20515;-57
2022/12/31 05:18:23;;;;;;;77.90;41.60;;;6.10;99.90;;;5.98;66.75;96133.22;4975941;28;20997;-56
2022/12/31 05:20:50;;;;;;;81.93;39.60;;;6.10;99.90;;;5.97;66.83;96133.31;4979746;28;20459;-58
2022/12/31 05:23:17;;;;;;;87.73;39.03;;;6.10;99.90;;;5.95;66.84;96128.13;4977926;28;20479;-56
2022/12/31 05:25:45;;;;;;;68.57;32.50;;;6.00;99.90;;;5.94;66.60;96129.03;4983433;28;20462;-56
2022/12/31 05:28:13;;;;;;;54.93;30.97;;;6.00;99.90;;;5.93;67.10;96130.81;4977997;28;20481;-57
2022/12/31 05:30:40;;;;;;;60.47;32.50;;;6.00;99.90;;;5.91;66.92;96132.66;4976232;28;20450;-58
2022/12/31 05:33:09;;;;;;;74.90;37.40;;;6.00;99.90;;;5.91;66.80;96137.03;4976380;28;20538;-58
2022/12/31 05:35:36;;;;;;;73.43;39.33;;;6.00;99.90;;;5.90;66.85;96137.94;4976180;28;20459;-56
2022/12/31 05:38:04;;;;;;;81.17;39.43;;;6.00;99.90;;;5.90;66.95;96138.81;4976872;28;20497;-54
2022/12/31 05:40:31;;;;;;;74.53;37.57;;;6.00;99.90;;;5.89;67.02;96144.13;4974685;28;20454;-57
2022/12/31 05:42:58;;;;;;;71.20;32.90;;;6.00;99.90;;;5.88;66.92;96147.66;4983546;28;21012;-56
2022/12/31 05:45:25;;;;;;;51.27;30.27;;;6.00;99.90;;;5.85;66.48;96147.81;4970671;28;20536;-56
2022/12/31 05:47:53;;;;;;;53.83;29.70;;;6.00;99.90;;;5.83;66.87;96149.66;4976630;28;20489;-58
2022/12/31 05:50:21;;;;;;;38.47;21.70;;;6.00;99.90;;;5.80;66.77;96155.03;4970666;28;20982;-59
2022/12/31 05:52:48;;;;;;;44.97;22.87;;;5.90;99.90;;;5.79;66.77;96155.94;4975705;28;20986;-57
2022/12/31 05:55:16;;;;;;;46.37;24.10;;;5.90;99.90;;;5.78;66.58;96157.72;4977238;28;20465;-58
2022/12/31 05:57:43;;;;;;;57.13;25.80;;;5.90;99.90;;;5.75;66.82;96161.31;4976397;28;20483;-56
2022/12/31 06:00:12;;;;;;;57.23;28.97;;;5.90;99.90;;;5.73;66.31;96171.00;4977889;28;20478;-57
2022/12/31 06:02:39;;;;;;;64.87;31.47;;;5.80;99.90;;;5.72;66.44;96171.09;4980255;28;20870;-57
2022/12/31 06:05:07;;;;;;;60.93;30.37;;;5.90;99.90;;;5.70;66.76;96168.56;4977420;28;20463;-58
2022/12/31 06:07:36;;;;;;;47.63;25.80;;;5.80;99.90;;;5.69;66.79;96169.47;4981216;28;20478;-56
2022/12/31 06:10:03;;;;;;;58.50;33.23;;;5.80;99.90;;;5.69;66.79;96168.63;4981786;28;20489;-58
2022/12/31 06:12:30;;;;;;;461.80;187.97;;;5.80;99.90;;;5.70;66.71;96167.69;4982497;28;21103;-58
2022/12/31 06:14:57;;;;;;;212.50;73.80;;;5.80;99.90;;;5.71;66.94;96177.22;4980384;28;20454;-57
2022/12/31 06:17:25;;;;;;;50.73;27.23;;;5.80;99.90;;;5.73;66.45;96181.47;4980568;28;20492;-56
2022/12/31 06:19:52;;;;;;;46.23;24.63;;;5.80;99.90;;;5.81;66.93;96177.59;4984914;28;20494;-56
2022/12/31 06:22:19;;;;;;;44.77;25.77;;;5.90;99.90;;;5.98;66.77;96175.00;4980197;28;20746;-57
2022/12/31 06:24:48;;;;;;;52.90;28.57;;;6.10;99.90;;;6.24;66.58;96175.41;4981890;28;20494;-58
2022/12/31 06:27:15;;;;;;;63.63;30.00;;;6.40;99.90;;;6.54;66.44;96183.38;4981918;28;20530;-56
2022/12/31 06:29:44;;;;;;;52.20;27.40;;;6.70;99.90;;;6.84;65.26;96185.25;4980739;28;20458;-58
2022/12/31 06:32:12;;;;;;;40.30;24.30;;;7.00;99.90;;;7.15;64.95;96189.63;4981081;28;20474;-56
2022/12/31 06:34:39;;;;;;;58.03;29.10;;;7.30;99.90;;;7.46;63.76;96198.34;4981211;28;21078;-58
2022/12/31 06:37:06;;;;;;;45.10;24.50;;;7.60;99.90;;;7.79;63.70;96194.72;4979201;28;20475;-57
2022/12/31 06:39:33;;;;;;;39.23;22.07;;;8.00;99.40;;;8.12;62.88;96195.41;4978787;28;20501;-58
2022/12/31 06:42:02;;;;;;;42.10;22.13;;;8.40;98.90;;;8.43;62.01;96205.78;4977871;28;20530;-54
2022/12/31 06:44:29;;;;;;;43.33;21.73;;;8.80;98.50;;;8.75;61.09;96204.72;4978136;28;20455;-54
2022/12/31 06:46:57;;;;;;;48.53;26.90;;;9.10;97.90;;;9.06;60.45;96208.91;4979877;28;20494;-56
2022/12/31 06:49:24;;;;;;;53.50;28.43;;;9.40;97.00;;;9.33;59.69;96206.28;4979498;28;20463;-57
2022/12/31 06:51:51;;;;;;;39.53;24.20;;;9.70;96.40;;;9.60;59.17;96208.03;4985080;28;20523;-58
2022/12/31 06:54:18;;;;;;;77.60;37.60;;;9.90;96.00;;;9.86;59.40;96208.94;4981612;28;20771;-54
2022/12/31 06:56:47;;;;;;;77.20;35.70;;;10.20;95.50;;;10.16;58.50;96209.63;4978501;28;20531;-56
2022/12/31 06:59:26;;;;;;;49.47;25.80;;;10.50;94.70;;;10.48;56.88;96210.06;4983892;28;20490;-54
2022/12/31 07:02:15;;;;;;;50.17;27.13;;;10.90;93.70;;;10.81;56.50;96207.81;4977947;28;20454;-54
2022/12/31 07:05:22;;;;;;;43.97;25.63;;;11.20;93.30;;;11.10;55.61;96211.84;4980212;28;20948;-57
2022/12/31 07:07:56;;;;;;;48.30;26.83;;;11.40;92.50;;;11.36;55.72;96211.78;4970539;28;20470;-56
2022/12/31 07:10:32;;;;;;;46.63;25.37;;;11.70;92.40;;;11.59;55.85;96218.00;4983274;28;20557;-57
2022/12/31 07:13:31;;;;;;;46.63;26.60;;;12.00;92.40;;;11.87;55.15;96228.28;4980425;28;20470;-57
2022/12/31 07:16:13;;;;;;;46.80;26.73;;;12.30;91.80;;;12.17;53.90;96233.09;4983562;28;20454;-55
2022/12/31 07:18:45;;;;;;;61.73;27.37;;;12.60;90.70;;;12.48;53.66;96226.31;4981825;28;20490;-57
2022/12/31 07:21:14;;;;;;;50.77;26.73;;;12.90;90.10;;;12.81;52.52;96229.97;4974908;28;20454;-58
2022/12/31 07:23:42;;;;;;;54.37;28.37;;;13.30;88.00;;;13.11;51.62;96228.50;4982162;28;20585;-56
2022/12/31 07:26:17;;;;;;;44.67;28.30;;;13.60;86.50;;;13.41;50.84;96230.50;4982708;28;20526;-56
2022/12/31 07:28:53;;;;;;;60.13;29.77;;;13.90;84.20;;;13.73;50.00;96235.00;4980239;28;20575;-55
2022/12/31 07:31:30;;;;;;;47.53;29.40;;;14.20;82.20;;;14.04;49.60;96237.75;4977688;28;20451;-59
2022/12/31 07:33:59;;;;;;;62.00;33.20;;;14.50;81.30;;;14.33;48.39;96243.25;4980411;28;20473;-60
2022/12/31 07:36:45;;;;;;;60.73;34.83;;;14.70;78.40;;;14.63;47.63;96236.34;4981042;28;20455;-59
2022/12/31 07:39:15;;;;;;;62.60;36.07;;;14.90;77.70;;;14.87;48.67;96233.44;4984025;28;20486;-54
2022/12/31 07:41:51;;;;;;;65.60;36.97;;;15.10;78.20;;;15.16;48.49;96234.50;4982487;28;20464;-55
2022/12/31 07:44:37;;;;;;;71.77;40.80;;;15.30;78.50;;;15.42;46.81;96241.00;4983362;28;20454;-55
2022/12/31 07:47:17;;;;;;;78.97;43.53;;;15.60;76.40;;;15.62;46.69;96251.66;4973230;28;20463;-58
2022/12/31 07:49:45;;;;;;;70.80;41.30;;;15.70;74.30;;;15.80;46.88;96248.34;4980060;28;20465;-59
2022/12/31 07:52:13;;;;;;;84.63;47.00;;;15.90;74.00;;;15.96;46.68;96251.31;4982766;28;20506;-55
2022/12/31 07:54:40;;;;;;;99.80;49.20;;;16.00;73.40;;;16.10;46.43;96258.00;4976719;28;21033;-60
2022/12/31 07:57:07;;;;;;;81.00;50.30;;;16.20;72.60;;;16.20;45.51;96255.34;4976606;28;20570;-56
2022/12/31 07:59:45;;;;;;;89.10;50.70;;;16.20;70.40;;;16.29;45.08;96254.50;4982657;28;20513;-58
2022/12/31 08:02:18;;;;;;;72.87;45.40;;;16.30;69.90;;;16.38;45.01;96251.00;4976646;28;20467;-59
2022/12/31 08:04:50;;;;;;;83.77;48.80;;;16.30;69.40;;;16.45;44.73;96253.91;4979510;28;20443;-58
2022/12/31 08:07:21;;;;;;;86.97;50.67;;;16.30;68.40;;;16.55;43.47;96253.91;4985847;28;21085;-59
2022/12/31 08:09:55;;;;;;;82.77;49.87;;;16.40;65.90;;;16.65;43.58;96249.41;4978754;28;20529;-58
2022/12/31 08:12:22;;;;;;;77.03;49.60;;;16.40;66.90;;;16.80;43.58;96247.13;4969031;28;20557;-56
2022/12/31 08:14:50;;;;;;;90.10;50.70;;;16.50;67.30;;;16.97;44.32;96248.25;4977711;28;20529;-58
2022/12/31 08:17:20;;;;;;;82.17;50.20;;;16.70;67.30;;;17.15;43.50;96254.47;4974306;28;20489;-57
2022/12/31 08:19:48;;;;;;;82.83;48.90;;;16.80;66.90;;;17.32;41.94;96239.56;4981562;28;20505;-58
2022/12/31 08:22:30;;;;;;;90.70;51.77;;;17.00;63.50;;;17.48;41.66;96241.56;4985937;28;21153;-58
2022/12/31 08:25:07;;;;;;;87.63;50.63;;;17.10;63.60;;;17.71;42.77;96246.47;4983401;28;20487;-57
2022/12/31 08:27:39;;;;;;;96.27;52.43;;;17.30;65.20;;;17.94;43.02;96246.91;4972748;28;20486;-58
2022/12/31 08:30:09;;;;;;;95.03;50.73;;;17.50;64.80;;;18.12;42.50;96248.72;4984814;28;20450;-59
2022/12/31 08:32:41;;;;;;;83.43;51.80;;;17.70;63.80;;;18.32;41.65;96246.72;4980927;28;21366;-58
2022/12/31 08:35:19;;;;;;;90.47;52.30;;;17.90;63.50;;;18.49;41.14;96256.53;4981063;28;20458;-56
2022/12/31 08:37:51;;;;;;;85.60;52.13;;;18.10;62.50;;;18.61;41.82;96259.78;4984952;28;20561;-58
2022/12/31 08:40:24;;;;;;;95.37;52.00;;;18.20;61.90;;;18.70;41.57;96250.00;4984592;28;20470;-58
2022/12/31 08:43:16;;;;;;;88.83;53.30;;;18.30;62.10;;;18.81;40.45;96261.25;4979233;28;20482;-57
2022/12/31 08:45:47;;;;;;;91.67;52.03;;;18.40;60.50;;;18.85;40.61;96250.28;4979395;28;20597;-58
2022/12/31 08:48:23;;;;;;;91.50;56.87;;;18.50;59.90;;;18.81;40.45;96247.91;4979434;28;20475;-58
2022/12/31 08:50:51;;;;;;;83.23;53.13;;;18.40;59.30;;;18.81;40.77;96245.25;4980853;28;20959;-57
2022/12/31 08:53:19;;;;;;;95.50;54.57;;;18.40;59.80;;;18.83;40.18;96242.44;4979674;28;20545;-58
2022/12/31 08:55:46;;;;;;;89.83;55.73;;;18.40;58.70;;;18.84;39.92;96244.09;4971538;28;20487;-57
2022/12/31 08:58:30;;;;;;;100.20;54.63;;;18.40;58.60;;;18.88;39.93;96245.47;4979992;28;20498;-57
2022/12/31 09:00:58;;;;;;;88.63;50.57;;;18.40;58.60;;;18.90;39.20;96238.19;4983050;28;20482;-56
2022/12/31 09:03:43;;;;;;;82.13;51.73;;;18.50;57.60;;;18.88;40.22;96242.81;4981290;28;20522;-56
2022/12/31 09:06:14;;;;;;;77.90;48.80;;;18.50;58.70;;;18.96;40.38;96237.56;4974045;28;21046;-56
2022/12/31 09:08:46;;;;;;;66.63;40.60;;;18.50;59.30;;;19.10;40.68;96240.59;4982099;28;20615;-62
2022/12/31 09:11:18;;;;;;;74.40;43.40;;;18.60;59.00;;;19.33;41.29;96239.06;4981494;28;20462;-55
2022/12/31 09:14:13;;;;;;;74.20;43.33;;;18.80;61.00;;;19.61;39.77;96240.63;4981340;28;20855;-56
2022/12/31 09:16:46;;;;;;;72.00;41.23;;;19.00;59.50;;;19.82;40.25;96233.06;4978883;28;20462;-56
2022/12/31 09:19:14;;;;;;;75.67;46.43;;;19.30;59.30;;;19.99;39.63;96233.91;4976048;28;20482;-58
2022/12/31 09:21:44;;;;;;;75.57;47.73;;;19.40;58.50;;;20.12;39.32;96232.59;4978145;28;20447;-61
2022/12/31 09:24:13;;;;;;;78.80;51.57;;;19.60;57.90;;;20.24;38.13;96229.41;4981938;28;20557;-59
2022/12/31 09:26:49;;;;;;;82.40;50.80;;;19.70;56.50;;;20.25;36.32;96224.94;4979536;28;20537;-57
2022/12/31 09:29:26;;;;;;;75.80;47.00;;;19.80;53.90;;;20.09;37.00;96217.72;4977750;28;20450;-58
2022/12/31 09:31:57;;;;;;;67.27;41.30;;;19.70;55.00;;;19.93;38.10;96218.56;4979796;28;20462;-61
2022/12/31 09:34:31;;;;;;;66.43;39.33;;;19.50;55.10;;;19.91;38.49;96215.22;4980995;28;20501;-61
2022/12/31 09:37:03;;;;;;;63.10;37.40;;;19.50;55.90;;;20.02;37.61;96203.38;4976820;28;20469;-59
2022/12/31 09:39:37;;;;;;;66.30;43.43;;;19.50;54.90;;;20.09;38.55;96208.88;4977633;28;20626;-61
2022/12/31 09:42:46;;;;;;;62.80;41.13;;;19.50;55.50;;;20.18;36.67;96194.53;4982292;28;20595;-54
2022/12/31 09:45:28;;;;;;;60.53;39.33;;;19.60;54.30;;;20.36;37.29;96178.34;4978622;28;20466;-57
2022/12/31 09:48:44;;;;;;;69.70;39.00;;;19.80;54.40;;;20.64;36.87;96181.47;4976874;28;20500;-56
2022/12/31 09:51:25;;;;;;;54.53;37.57;;;20.00;54.60;;;20.86;36.52;96184.44;4977120;28;20467;-57
2022/12/31 09:54:15;;;;;;;65.70;42.27;;;20.20;54.70;;;21.13;35.90;96180.50;4983775;28;20477;-59
2022/12/31 09:56:45;;;;;;;66.17;41.73;;;20.40;53.80;;;21.39;36.45;96176.72;4983335;28;20520;-56
2022/12/31 09:59:15;;;;;;;62.50;41.50;;;20.70;53.70;;;21.60;36.35;96173.47;4973347;28;20454;-57
2022/12/31 10:01:50;;;;;;;56.60;38.43;;;20.90;53.40;;;21.70;35.60;96171.38;4980159;28;20473;-57
2022/12/31 10:04:39;;;;;;;59.17;38.83;;;21.00;52.40;;;21.82;34.17;96172.63;4979612;28;20513;-57
2022/12/31 10:07:19;;;;;;;71.90;43.73;;;21.20;52.10;;;21.91;34.49;96168.06;4982611;28;20497;-58
2022/12/31 10:09:55;;;;;;;71.83;46.40;;;21.30;51.10;;;22.07;35.74;96167.09;4981472;28;20450;-54
2022/12/31 10:13:08;;;;;;;96.67;47.90;;;21.40;52.70;;;22.25;34.79;96165.97;4980354;28;20987;-58
2022/12/31 10:16:04;;;;;;;72.77;45.40;;;21.60;52.20;;;22.47;34.53;96154.38;4979973;28;20477;-56
2022/12/31 10:18:51;;;;;;;70.90;45.53;;;21.80;51.60;;;22.63;34.16;96153.38;4982026;28;20483;-57
2022/12/31 10:21:32;;;;;;;70.40;46.63;;;22.00;50.80;;;22.77;34.30;96149.03;4977105;28;20861;-56
2022/12/31 10:24:20;;;;;;;66.77;45.13;;;22.20;50.20;;;22.86;34.20;96137.19;4976137;28;20549;-57
2022/12/31 10:26:59;;;;;;;66.73;45.70;;;22.30;50.80;;;22.95;33.81;96142.47;4981251;28;20530;-56
2022/12/31 10:29:39;;;;;;;65.77;43.13;;;22.40;50.00;;;23.04;33.82;96138.69;4980235;28;21027;-60
2022/12/31 10:32:16;;;;;;;69.60;43.90;;;22.50;49.80;;;23.29;33.10;96141.09;4980312;28;21165;-59
2022/12/31 10:34:55;;;;;;;71.70;43.87;;;22.70;49.50;;;23.67;32.86;96138.19;4988394;28;20493;-58
2022/12/31 10:37:27;;;;;;;65.30;42.57;;;23.00;48.60;;;24.02;33.22;96141.06;4980279;28;20564;-56
2022/12/31 10:40:04;;;;;;;76.23;45.43;;;23.20;48.40;;;24.45;31.83;96141.00;4983541;28;20486;-55
2022/12/31 10:43:26;;;;;;;82.23;47.57;;;23.60;47.80;;;25.02;30.32;96128.34;4980281;28;20466;-55
2022/12/31 10:46:24;;;;;;;72.83;45.47;;;24.00;46.70;;;25.61;29.45;96129.63;4975437;28;20458;-57
2022/12/31 10:49:36;;;;;;;64.27;40.87;;;24.50;45.90;;;26.19;29.17;96125.59;4981341;28;20484;-59